RAIN

Not for real navigation. The accuracy of this data is not assured See disclaimer for more information



ICAO NAME COUNTRY WIND Kt GUST Kt VIS m TEMP/DEW C BARO METAR
KPOE Fort Polk, Polk AAF Ft Polk LA United States 0 0 200 16/16 29.96 KPOE 261236Z AUTO 00000KT 0.125SM FG VV001 16/16 A2996 RMK AO2 DZE01DZB12E22RAB25E36 SLP146 RVRNO
KDBQ DUBUQUE REGIONAL AIRPORT IA United States 8 0 400 5/5 29.83 KDBQ 261153Z 04008KT 0.25SM R36/1200V1400FT FG VV001 05/05 A2983 RMK AO2 RAB31E40 SLP107 P0000 60008
PAMY Mekoryuk, Mekoryuk Airport AK United States 3 0 400 -16/-18 29.88 PAMY 261236Z AUTO 08003KT 0.25SM -SN FZFG VV001 M16/M18 A2988 RMK AO2 SNB23 P0000 FZRANO
KARA NEW IBERIA ACADIANA REGIONAL LA United States 0 0 400 17/16 29.98 KARA 261233Z 00000KT 0.25SM -RA FG VV005 17/16 A2998 RMK AO2 RAB12 P0000 T01720161
KDPA CHICAGO/WEST CH DUPAGE IL United States 6 0 400 9/9 29.84 KDPA 261152Z 07006KT 0.25SM FG OVC002 09/09 A2984 RMK AO2 RAE27 SLP108 P0001 60001 70025 T00940094 1

Show more